Time;durP1;ratioP1;P1;durP2;ratioP2;P2;SDS_P1;SDS_P2;PMS_P1;PMS_P2;Temp;Humidity;BMP_temperature;BMP_pressure;BME280_temperature;BME280_humidity;BME280_pressure;Samples;Min_cycle;Max_cycle;Signal;HPM_P1;HPM_P2
2023/01/31 00:00:13;;;;;;;7.40;5.87;;;;;;;;;;5048019;28;20461;-75
2023/01/31 00:02:40;;;;;;;5.50;5.00;;;;;;;;;;5048143;28;20929;-75
2023/01/31 00:05:08;;;;;;;6.13;5.53;;;;;;;;;;5048604;28;20453;-75
2023/01/31 00:07:35;;;;;;;10.07;6.30;;;;;;;;;;5048684;28;20499;-75
2023/01/31 00:10:02;;;;;;;9.40;5.87;;;;;;;;;;5048314;28;20965;-75
2023/01/31 00:12:29;;;;;;;6.40;5.77;;;;;;;;;;5048337;28;20453;-75
2023/01/31 00:14:57;;;;;;;8.43;5.47;;;;;;;;;;5048442;28;20445;-76
2023/01/31 00:17:24;;;;;;;9.50;5.63;;;;;;;;;;5048466;28;20477;-75
2023/01/31 00:19:51;;;;;;;7.33;5.67;;;;;;;;;;5049249;28;20804;-75
2023/01/31 00:22:18;;;;;;;6.63;5.50;;;;;;;;;;5052136;28;20452;-75
2023/01/31 00:24:45;;;;;;;9.93;6.33;;;;;;;;;;5052102;28;20442;-77
2023/01/31 00:27:12;;;;;;;10.30;5.70;;;;;;;;;;5053089;28;20548;-75
2023/01/31 00:29:39;;;;;;;6.97;5.47;;;;;;;;;;5052587;28;20457;-75
2023/01/31 00:32:08;;;;;;;9.47;5.93;;;;;;;;;;5052652;28;20449;-75
2023/01/31 00:34:35;;;;;;;9.23;5.53;;;;;;;;;;5052878;28;20450;-74
2023/01/31 00:37:02;;;;;;;6.83;5.97;;;;;;;;;;5053200;28;20898;-75
2023/01/31 00:39:29;;;;;;;7.73;5.27;;;;;;;;;;5053412;28;20458;-75
2023/01/31 00:41:56;;;;;;;8.20;5.87;;;;;;;;;;5052710;28;20445;-76
2023/01/31 00:44:23;;;;;;;8.70;5.87;;;;;;;;;;5052664;28;20815;-75
2023/01/31 00:46:50;;;;;;;7.47;5.53;;;;;;;;;;5052394;28;21071;-75
2023/01/31 00:49:18;;;;;;;6.10;5.50;;;;;;;;;;5052305;28;20441;-75
2023/01/31 00:51:45;;;;;;;8.73;5.57;;;;;;;;;;5052539;28;20441;-75
2023/01/31 00:54:12;;;;;;;8.53;5.83;;;;;;;;;;5052698;28;20739;-74
2023/01/31 00:56:39;;;;;;;6.07;5.00;;;;;;;;;;5052436;28;20480;-74
2023/01/31 00:59:07;;;;;;;7.60;5.23;;;;;;;;;;5054677;28;20448;-75
2023/01/31 01:01:35;;;;;;;9.20;5.50;;;;;;;;;;5056753;28;20794;-75
2023/01/31 01:04:02;;;;;;;5.73;5.10;;;;;;;;;;5052414;28;20448;-74
2023/01/31 01:06:31;;;;;;;7.40;5.57;;;;;;;;;;5051982;28;20441;-75
2023/01/31 01:08:59;;;;;;;6.53;5.20;;;;;;;;;;5052455;28;20445;-75
2023/01/31 01:11:26;;;;;;;9.70;4.23;;;;;;;;;;5053557;28;20489;-74
2023/01/31 01:13:54;;;;;;;7.20;4.37;;;;;;;;;;5061303;28;20459;-75
2023/01/31 01:16:22;;;;;;;7.00;5.00;;;;;;;;;;5054265;28;20485;-75
2023/01/31 01:18:49;;;;;;;7.40;4.80;;;;;;;;;;5059884;28;20457;-74
2023/01/31 01:21:17;;;;;;;7.40;5.03;;;;;;;;;;5066561;28;20466;-74
2023/01/31 01:23:47;;;;;;;8.53;4.60;;;;;;;;;;5060820;28;20457;-75
2023/01/31 01:26:14;;;;;;;7.20;5.33;;;;;;;;;;5052144;28;20889;-74
2023/01/31 01:28:41;;;;;;;6.10;5.50;;;;;;;;;;5051826;28;20545;-74
2023/01/31 01:31:09;;;;;;;6.30;5.03;;;;;;;;;;5051514;28;20969;-75
2023/01/31 01:33:36;;;;;;;11.00;4.77;;;;;;;;;;5051284;28;20965;-74
2023/01/31 01:36:04;;;;;;;5.13;4.60;;;;;;;;;;5051064;28;20441;-75
2023/01/31 01:38:31;;;;;;;6.40;5.30;;;;;;;;;;5058612;28;20937;-75
2023/01/31 01:40:59;;;;;;;7.40;5.60;;;;;;;;;;5057013;28;20464;-75
2023/01/31 01:43:40;;;;;;;8.13;5.00;;;;;;;;;;5070949;28;20932;-75
2023/01/31 01:46:07;;;;;;;7.47;4.70;;;;;;;;;;5071209;28;20452;-74
2023/01/31 01:48:34;;;;;;;11.37;5.60;;;;;;;;;;5071467;28;20490;-75
2023/01/31 01:51:04;;;;;;;10.00;5.23;;;;;;;;;;5070867;28;20464;-75
2023/01/31 01:53:31;;;;;;;7.40;4.87;;;;;;;;;;5071112;28;20642;-74
2023/01/31 01:56:02;;;;;;;6.93;4.40;;;;;;;;;;5071369;28;20447;-74
2023/01/31 01:58:31;;;;;;;7.73;4.60;;;;;;;;;;5070891;28;20490;-74
2023/01/31 02:00:58;;;;;;;6.93;5.60;;;;;;;;;;5071076;28;20575;-75
2023/01/31 02:03:26;;;;;;;8.80;4.50;;;;;;;;;;5071059;28;20464;-74
2023/01/31 02:05:54;;;;;;;5.97;5.30;;;;;;;;;;5070623;28;20455;-74
2023/01/31 02:08:22;;;;;;;11.17;5.33;;;;;;;;;;5070905;28;20490;-75
2023/01/31 02:10:51;;;;;;;5.60;4.83;;;;;;;;;;5071124;28;20835;-74
2023/01/31 02:13:21;;;;;;;7.67;5.77;;;;;;;;;;5070441;28;20475;-75
2023/01/31 02:15:48;;;;;;;10.83;5.70;;;;;;;;;;5063450;28;20442;-75
2023/01/31 02:18:16;;;;;;;10.73;5.10;;;;;;;;;;5050594;28;20488;-73
2023/01/31 02:21:07;;;;;;;9.80;5.70;;;;;;;;;;5055679;28;20465;-74
2023/01/31 02:23:43;;;;;;;12.50;5.83;;;;;;;;;;5001712;28;20956;-74
2023/01/31 02:26:24;;;;;;;11.00;4.97;;;;;;;;;;5057960;28;20452;-74
2023/01/31 02:29:13;;;;;;;7.07;5.33;;;;;;;;;;5051604;28;20913;-74
2023/01/31 02:31:55;;;;;;;6.00;5.40;;;;;;;;;;5050782;28;20802;-75
2023/01/31 02:34:26;;;;;;;8.70;6.13;;;;;;;;;;5017301;28;20438;-74
2023/01/31 02:36:58;;;;;;;7.93;5.40;;;;;;;;;;5050703;28;20483;-73
2023/01/31 02:39:29;;;;;;;9.07;5.40;;;;;;;;;;5050834;28;20473;-74
2023/01/31 02:41:57;;;;;;;7.73;5.27;;;;;;;;;;5050480;28;20445;-74
2023/01/31 02:47:18;;;;;;;12.70;5.50;;;;;;;;;;5050386;28;20425;-75
2023/01/31 02:49:49;;;;;;;9.40;5.80;;;;;;;;;;5050460;28;20465;-75
2023/01/31 02:52:19;;;;;;;10.70;6.00;;;;;;;;;;5050662;28;20422;-75
2023/01/31 02:57:36;;;;;;;17.07;5.00;;;;;;;;;;5051173;28;20871;-75
2023/01/31 03:00:03;;;;;;;7.57;5.53;;;;;;;;;;5051106;28;20462;-74
2023/01/31 03:02:30;;;;;;;7.50;5.10;;;;;;;;;;5049864;28;21122;-75
2023/01/31 03:04:59;;;;;;;7.93;5.23;;;;;;;;;;5050090;28;20847;-75
2023/01/31 03:07:28;;;;;;;6.77;5.90;;;;;;;;;;5050245;28;20770;-74
2023/01/31 03:10:01;;;;;;;7.10;5.33;;;;;;;;;;5050100;28;20469;-74
2023/01/31 03:12:34;;;;;;;11.97;6.23;;;;;;;;;;5050280;28;20682;-75
2023/01/31 03:15:08;;;;;;;8.60;6.33;;;;;;;;;;5050104;28;20437;-74
2023/01/31 03:17:39;;;;;;;7.93;5.97;;;;;;;;;;5052051;28;20980;-74
2023/01/31 03:20:11;;;;;;;9.93;6.17;;;;;;;;;;5051121;28;20556;-75
2023/01/31 03:22:39;;;;;;;11.70;6.27;;;;;;;;;;5051357;28;20811;-75
2023/01/31 03:25:07;;;;;;;10.53;6.50;;;;;;;;;;5050295;28;20533;-74
2023/01/31 03:27:35;;;;;;;12.97;5.83;;;;;;;;;;5049717;28;20438;-74
2023/01/31 03:30:05;;;;;;;6.87;5.60;;;;;;;;;;5049741;28;20515;-75
2023/01/31 03:32:34;;;;;;;11.93;5.77;;;;;;;;;;5049716;28;20747;-74
2023/01/31 03:35:01;;;;;;;10.93;6.20;;;;;;;;;;5049643;28;20449;-74
2023/01/31 03:37:34;;;;;;;10.40;5.27;;;;;;;;;;5049686;28;20547;-74
2023/01/31 03:40:04;;;;;;;9.13;6.03;;;;;;;;;;5050038;28;20530;-75
2023/01/31 03:42:35;;;;;;;12.73;6.80;;;;;;;;;;5049928;28;20492;-75
2023/01/31 03:45:05;;;;;;;10.47;6.07;;;;;;;;;;5049890;28;20454;-74
2023/01/31 03:47:34;;;;;;;9.67;5.73;;;;;;;;;;5049992;28;20438;-73
2023/01/31 03:50:03;;;;;;;7.70;6.00;;;;;;;;;;5049773;28;20862;-74
2023/01/31 03:52:34;;;;;;;8.30;5.67;;;;;;;;;;5050035;28;20441;-75
2023/01/31 03:55:03;;;;;;;11.03;5.83;;;;;;;;;;5051556;28;20528;-74
2023/01/31 03:57:33;;;;;;;16.60;6.03;;;;;;;;;;5053721;28;20599;-74
2023/01/31 04:00:01;;;;;;;6.47;5.50;;;;;;;;;;5053448;28;20505;-74
2023/01/31 04:02:31;;;;;;;7.30;5.33;;;;;;;;;;5052947;28;20889;-74
2023/01/31 04:05:01;;;;;;;7.60;5.50;;;;;;;;;;5053326;28;20452;-74
2023/01/31 04:07:28;;;;;;;8.87;5.90;;;;;;;;;;5056194;28;20449;-75
2023/01/31 04:09:57;;;;;;;10.23;6.23;;;;;;;;;;5057774;28;20484;-74
2023/01/31 04:12:24;;;;;;;11.40;5.73;;;;;;;;;;5057416;28;20457;-74
2023/01/31 04:14:51;;;;;;;6.30;5.13;;;;;;;;;;5059957;28;20449;-74
2023/01/31 04:17:18;;;;;;;9.57;5.80;;;;;;;;;;5054438;28;20537;-75
2023/01/31 04:19:45;;;;;;;7.30;5.37;;;;;;;;;;5053297;28;20465;-74
2023/01/31 04:22:12;;;;;;;6.67;4.60;;;;;;;;;;5052594;28;20854;-74
2023/01/31 04:24:39;;;;;;;7.67;5.20;;;;;;;;;;5052570;28;20448;-74
2023/01/31 04:27:07;;;;;;;8.53;5.60;;;;;;;;;;5052926;28;20441;-74
2023/01/31 04:29:34;;;;;;;8.37;5.90;;;;;;;;;;5052316;28;20472;-76
2023/01/31 04:32:02;;;;;;;7.77;6.07;;;;;;;;;;5052567;28;20857;-75
2023/01/31 04:34:29;;;;;;;8.30;6.10;;;;;;;;;;5052743;28;20437;-75
2023/01/31 04:36:56;;;;;;;13.23;6.10;;;;;;;;;;5053056;28;20449;-74
2023/01/31 04:39:23;;;;;;;8.97;5.77;;;;;;;;;;5052659;28;20659;-75
2023/01/31 04:41:50;;;;;;;7.13;5.50;;;;;;;;;;5052643;28;20434;-75
2023/01/31 04:44:18;;;;;;;9.83;6.27;;;;;;;;;;5052527;28;20453;-74
2023/01/31 04:46:45;;;;;;;11.33;6.50;;;;;;;;;;5052607;28;20456;-76
2023/01/31 04:49:13;;;;;;;14.43;5.73;;;;;;;;;;5052839;28;20480;-75
2023/01/31 04:51:40;;;;;;;10.73;5.93;;;;;;;;;;5052982;28;20445;-74
2023/01/31 04:54:07;;;;;;;12.57;6.10;;;;;;;;;;5052320;28;20448;-75
2023/01/31 04:56:34;;;;;;;11.00;6.00;;;;;;;;;;5052092;28;20440;-74
2023/01/31 04:59:01;;;;;;;11.47;5.27;;;;;;;;;;5052517;28;20477;-75
2023/01/31 05:01:30;;;;;;;6.83;6.10;;;;;;;;;;5052553;28;20473;-74
2023/01/31 05:03:57;;;;;;;8.80;5.47;;;;;;;;;;5052091;28;20499;-74
2023/01/31 05:06:24;;;;;;;11.27;5.43;;;;;;;;;;5052145;28;20507;-75
2023/01/31 05:08:53;;;;;;;7.50;5.90;;;;;;;;;;5052143;28;20441;-75
2023/01/31 05:11:20;;;;;;;14.33;6.30;;;;;;;;;;5052146;28;20464;-75
2023/01/31 05:13:47;;;;;;;10.90;6.00;;;;;;;;;;5051738;28;20499;-74
2023/01/31 05:16:14;;;;;;;11.33;5.63;;;;;;;;;;5052168;28;20844;-74
2023/01/31 05:18:43;;;;;;;12.33;6.83;;;;;;;;;;5052663;28;20477;-75
2023/01/31 05:21:11;;;;;;;9.30;6.30;;;;;;;;;;5052174;28;20473;-75
2023/01/31 05:23:38;;;;;;;13.00;6.07;;;;;;;;;;5051833;28;20522;-74
2023/01/31 05:26:05;;;;;;;8.37;6.00;;;;;;;;;;5052026;28;20456;-75
2023/01/31 05:28:32;;;;;;;9.97;6.37;;;;;;;;;;5052215;28;20920;-75
2023/01/31 05:31:02;;;;;;;10.20;6.20;;;;;;;;;;5052411;28;20469;-74
2023/01/31 05:33:30;;;;;;;11.53;6.17;;;;;;;;;;5052344;28;20422;-75
2023/01/31 05:35:58;;;;;;;12.33;6.00;;;;;;;;;;5051561;28;20456;-74
2023/01/31 05:38:26;;;;;;;8.37;6.40;;;;;;;;;;5051553;28;20470;-75
2023/01/31 05:40:53;;;;;;;14.57;6.10;;;;;;;;;;5051445;28;20871;-74
2023/01/31 05:43:20;;;;;;;12.63;6.77;;;;;;;;;;5051556;28;20457;-74
2023/01/31 05:45:48;;;;;;;13.20;6.67;;;;;;;;;;5051515;28;20502;-76
2023/01/31 05:48:15;;;;;;;7.27;6.07;;;;;;;;;;5051449;28;20446;-76
2023/01/31 05:50:42;;;;;;;11.67;5.93;;;;;;;;;;5051500;28;20473;-75
2023/01/31 05:53:11;;;;;;;10.13;6.70;;;;;;;;;;5051840;28;20810;-75
2023/01/31 05:55:38;;;;;;;9.10;7.20;;;;;;;;;;5051371;28;20554;-75
2023/01/31 05:58:05;;;;;;;10.87;6.53;;;;;;;;;;5050856;28;20981;-75
2023/01/31 06:00:32;;;;;;;9.80;5.97;;;;;;;;;;5051214;28;20472;-74
2023/01/31 06:03:00;;;;;;;8.00;6.00;;;;;;;;;;5051195;28;20510;-74
2023/01/31 06:05:27;;;;;;;7.43;6.70;;;;;;;;;;5051531;28;20464;-75
2023/01/31 06:07:54;;;;;;;10.73;7.37;;;;;;;;;;5051130;28;20449;-75
2023/01/31 06:10:22;;;;;;;11.57;7.70;;;;;;;;;;5050644;28;20563;-77
2023/01/31 06:12:49;;;;;;;11.90;8.13;;;;;;;;;;5049076;28;20457;-77
2023/01/31 06:15:16;;;;;;;8.83;7.17;;;;;;;;;;5048850;28;20441;-75
2023/01/31 06:17:43;;;;;;;8.57;6.33;;;;;;;;;;5048336;28;20453;-74
2023/01/31 06:20:11;;;;;;;11.37;7.33;;;;;;;;;;5048978;28;20476;-75
2023/01/31 06:22:38;;;;;;;6.40;5.33;;;;;;;;;;5049018;28;20453;-75
2023/01/31 06:25:05;;;;;;;16.53;6.93;;;;;;;;;;5048898;28;20460;-76
2023/01/31 06:27:34;;;;;;;9.83;6.23;;;;;;;;;;5049162;28;20445;-76
2023/01/31 06:30:01;;;;;;;9.97;6.30;;;;;;;;;;5049751;28;20496;-74
2023/01/31 06:32:28;;;;;;;9.23;6.90;;;;;;;;;;5048787;28;20526;-75
2023/01/31 06:34:55;;;;;;;8.77;6.10;;;;;;;;;;5047760;28;20866;-74
2023/01/31 06:37:22;;;;;;;7.80;6.53;;;;;;;;;;5055970;28;20444;-76
2023/01/31 06:39:49;;;;;;;10.90;6.90;;;;;;;;;;5048302;28;20492;-74
2023/01/31 06:42:16;;;;;;;12.60;8.37;;;;;;;;;;5048721;28;20458;-75
2023/01/31 06:44:45;;;;;;;11.50;7.53;;;;;;;;;;5054457;28;20445;-73
2023/01/31 06:47:13;;;;;;;8.33;7.27;;;;;;;;;;5057970;28;20467;-75
2023/01/31 06:49:40;;;;;;;8.70;7.13;;;;;;;;;;5048495;28;20675;-75
2023/01/31 06:52:07;;;;;;;11.73;7.70;;;;;;;;;;5048300;28;20445;-74
2023/01/31 06:54:34;;;;;;;9.47;7.03;;;;;;;;;;5048946;28;20456;-73
2023/01/31 06:57:01;;;;;;;9.10;6.23;;;;;;;;;;5049292;28;20467;-74
2023/01/31 06:59:28;;;;;;;8.70;7.40;;;;;;;;;;5051592;28;20491;-76
2023/01/31 07:01:57;;;;;;;8.97;8.07;;;;;;;;;;5050325;28;20449;-75
2023/01/31 07:04:24;;;;;;;8.90;7.30;;;;;;;;;;5048753;28;20443;-74
2023/01/31 07:06:51;;;;;;;11.73;7.60;;;;;;;;;;5049862;28;20871;-76
2023/01/31 07:09:18;;;;;;;7.30;6.60;;;;;;;;;;5050234;28;20445;-74
2023/01/31 07:11:45;;;;;;;9.60;6.97;;;;;;;;;;5048464;28;20459;-75
2023/01/31 07:14:12;;;;;;;11.13;7.37;;;;;;;;;;5047828;28;20809;-74
2023/01/31 07:16:39;;;;;;;9.00;6.30;;;;;;;;;;5048145;28;20448;-77
2023/01/31 07:19:08;;;;;;;12.33;6.97;;;;;;;;;;5047859;28;20484;-76
2023/01/31 07:21:35;;;;;;;11.20;7.00;;;;;;;;;;5047836;28;20449;-75
2023/01/31 07:24:02;;;;;;;10.80;7.60;;;;;;;;;;5047933;28;20500;-75
2023/01/31 07:26:29;;;;;;;12.63;8.20;;;;;;;;;;5047254;28;20442;-75
2023/01/31 07:28:56;;;;;;;13.40;6.77;;;;;;;;;;5048730;28;20590;-74
2023/01/31 07:31:24;;;;;;;14.73;7.03;;;;;;;;;;5051698;28;20456;-75
2023/01/31 07:33:51;;;;;;;11.53;7.90;;;;;;;;;;5051530;28;20452;-76
2023/01/31 07:36:25;;;;;;;11.00;6.90;;;;;;;;;;5052227;28;20552;-76
2023/01/31 07:38:54;;;;;;;10.27;7.43;;;;;;;;;;5051665;28;20467;-75
2023/01/31 07:41:21;;;;;;;10.37;7.60;;;;;;;;;;5051796;28;20904;-74
2023/01/31 07:43:48;;;;;;;14.13;9.23;;;;;;;;;;5051655;28;20970;-75
2023/01/31 07:46:15;;;;;;;9.10;7.47;;;;;;;;;;5051833;28;20962;-75
2023/01/31 07:48:42;;;;;;;13.40;8.10;;;;;;;;;;5052717;28;20453;-75
2023/01/31 07:51:09;;;;;;;12.80;8.00;;;;;;;;;;5052011;28;20464;-75
2023/01/31 07:53:40;;;;;;;8.27;7.00;;;;;;;;;;5052117;28;20456;-75
2023/01/31 07:56:09;;;;;;;11.77;6.47;;;;;;;;;;5052092;28;20445;-75
2023/01/31 07:58:36;;;;;;;13.33;6.60;;;;;;;;;;5052407;28;20508;-76
2023/01/31 08:03:48;;;;;;;14.50;8.03;;;;;;;;;;5051684;28;20924;-75
2023/01/31 08:06:15;;;;;;;13.43;7.80;;;;;;;;;;5051118;28;20445;-75
2023/01/31 08:08:44;;;;;;;14.97;6.30;;;;;;;;;;5051300;28;20442;-75
2023/01/31 08:11:11;;;;;;;9.10;6.10;;;;;;;;;;5050960;28;21004;-75
2023/01/31 08:13:39;;;;;;;6.63;5.63;;;;;;;;;;5058172;28;20445;-76
2023/01/31 08:16:08;;;;;;;11.27;6.13;;;;;;;;;;5075173;28;20432;-77
2023/01/31 08:18:35;;;;;;;12.63;6.03;;;;;;;;;;5070971;28;20504;-76
2023/01/31 08:21:02;;;;;;;11.70;5.40;;;;;;;;;;5053609;28;20477;-76
2023/01/31 08:23:29;;;;;;;6.50;5.17;;;;;;;;;;5051879;28;20476;-75
2023/01/31 08:26:02;;;;;;;11.70;6.07;;;;;;;;;;5051796;28;20492;-75
2023/01/31 08:28:29;;;;;;;10.70;5.30;;;;;;;;;;5051790;28;20531;-75
2023/01/31 08:30:56;;;;;;;8.63;5.77;;;;;;;;;;5051431;28;20472;-74
2023/01/31 08:33:24;;;;;;;12.10;5.70;;;;;;;;;;5051851;28;20456;-74
2023/01/31 08:35:51;;;;;;;6.07;4.97;;;;;;;;;;5051268;28;20441;-76
2023/01/31 08:38:18;;;;;;;5.63;4.90;;;;;;;;;;5050649;28;20461;-75
2023/01/31 08:40:45;;;;;;;7.53;5.43;;;;;;;;;;5050060;28;20859;-75
2023/01/31 08:43:13;;;;;;;11.73;5.37;;;;;;;;;;5052792;28;20953;-76
2023/01/31 08:45:41;;;;;;;8.23;4.93;;;;;;;;;;5051377;28;20476;-74
2023/01/31 08:48:08;;;;;;;9.93;5.17;;;;;;;;;;5051102;28;20524;-75
2023/01/31 08:50:35;;;;;;;7.90;4.90;;;;;;;;;;5050534;28;20546;-76
2023/01/31 08:53:03;;;;;;;8.13;5.03;;;;;;;;;;5050833;28;20457;-75
2023/01/31 08:55:31;;;;;;;6.17;5.00;;;;;;;;;;5051334;28;20464;-78
2023/01/31 08:58:00;;;;;;;9.53;5.07;;;;;;;;;;5050892;28;20441;-74
2023/01/31 09:00:29;;;;;;;9.27;5.30;;;;;;;;;;5050485;28;20493;-75
2023/01/31 09:02:57;;;;;;;8.80;5.30;;;;;;;;;;5050111;28;20437;-75
2023/01/31 09:05:24;;;;;;;11.33;5.50;;;;;;;;;;5050416;28;20450;-75
2023/01/31 09:07:51;;;;;;;9.97;5.03;;;;;;;;;;5049983;28;20512;-75
2023/01/31 09:10:19;;;;;;;6.80;4.70;;;;;;;;;;5049915;28;20981;-75
2023/01/31 09:12:46;;;;;;;12.03;5.50;;;;;;;;;;5049648;28;20937;-75
2023/01/31 09:15:13;;;;;;;7.40;4.93;;;;;;;;;;5049576;28;20468;-74
2023/01/31 09:17:42;;;;;;;9.80;5.73;;;;;;;;;;5049853;28;20863;-75
2023/01/31 09:20:10;;;;;;;10.57;5.83;;;;;;;;;;5049805;28;20517;-76
2023/01/31 09:22:37;;;;;;;9.70;5.10;;;;;;;;;;5049749;28;20963;-76
2023/01/31 09:25:04;;;;;;;7.80;4.80;;;;;;;;;;5049674;28;20449;-76
2023/01/31 09:27:31;;;;;;;13.80;6.40;;;;;;;;;;5049940;28;20456;-76
2023/01/31 09:29:58;;;;;;;11.23;5.73;;;;;;;;;;5052203;28;20465;-75
2023/01/31 09:32:25;;;;;;;7.83;5.70;;;;;;;;;;5052737;28;20528;-75
2023/01/31 09:34:54;;;;;;;7.03;5.10;;;;;;;;;;5054245;28;20460;-74
2023/01/31 09:37:21;;;;;;;12.07;6.47;;;;;;;;;;5059775;28;20822;-75
2023/01/31 09:39:48;;;;;;;9.03;5.47;;;;;;;;;;5061360;28;20489;-75
2023/01/31 09:42:19;;;;;;;10.73;6.30;;;;;;;;;;5058920;28;20445;-74
2023/01/31 09:44:50;;;;;;;7.73;5.30;;;;;;;;;;5052051;28;20445;-75
2023/01/31 09:47:21;;;;;;;6.13;5.20;;;;;;;;;;5049879;28;20450;-75
2023/01/31 09:49:49;;;;;;;8.33;5.50;;;;;;;;;;5049674;28;20522;-75
2023/01/31 09:52:17;;;;;;;9.80;5.67;;;;;;;;;;5048990;28;20453;-75
2023/01/31 09:54:45;;;;;;;9.80;5.30;;;;;;;;;;5049806;28;20445;-75
2023/01/31 09:57:17;;;;;;;7.07;5.30;;;;;;;;;;5048889;28;20457;-75
2023/01/31 09:59:48;;;;;;;10.23;6.73;;;;;;;;;;5053255;28;20845;-77
2023/01/31 10:02:23;;;;;;;9.70;5.60;;;;;;;;;;5052802;28;20940;-74
2023/01/31 10:04:59;;;;;;;12.17;5.70;;;;;;;;;;5050478;28;20519;-74
2023/01/31 10:07:29;;;;;;;5.97;5.00;;;;;;;;;;5048508;28;20449;-75
2023/01/31 10:10:00;;;;;;;9.63;5.63;;;;;;;;;;5048626;28;20459;-74
2023/01/31 10:12:31;;;;;;;5.70;5.03;;;;;;;;;;5048024;28;20511;-75
2023/01/31 10:15:00;;;;;;;10.57;5.90;;;;;;;;;;5047570;28;20525;-74
2023/01/31 10:17:30;;;;;;;8.53;5.90;;;;;;;;;;5048456;28;20453;-74
2023/01/31 10:19:58;;;;;;;8.60;4.70;;;;;;;;;;5048716;28;20520;-75
2023/01/31 10:22:30;;;;;;;10.20;5.20;;;;;;;;;;5048718;28;20445;-75
2023/01/31 10:25:02;;;;;;;8.33;5.13;;;;;;;;;;5048743;28;20437;-74
2023/01/31 10:27:40;;;;;;;9.30;4.63;;;;;;;;;;5048621;28;20481;-75
2023/01/31 10:30:13;;;;;;;4.90;4.30;;;;;;;;;;5050040;28;20507;-75
2023/01/31 10:32:43;;;;;;;7.20;4.27;;;;;;;;;;5050619;28;20488;-75
2023/01/31 10:35:14;;;;;;;5.60;4.00;;;;;;;;;;5050425;28;20445;-75
2023/01/31 10:37:43;;;;;;;10.00;4.70;;;;;;;;;;5050212;28;20444;-75
2023/01/31 10:40:15;;;;;;;10.93;4.80;;;;;;;;;;5050315;28;20992;-75
2023/01/31 10:42:45;;;;;;;6.90;5.90;;;;;;;;;;5050467;28;20903;-75
2023/01/31 10:45:16;;;;;;;7.07;4.23;;;;;;;;;;5050191;28;20548;-75
2023/01/31 10:47:47;;;;;;;12.40;4.73;;;;;;;;;;5050213;28;20559;-75
2023/01/31 10:50:16;;;;;;;10.20;4.10;;;;;;;;;;5050512;28;20820;-75
2023/01/31 10:52:50;;;;;;;7.43;4.20;;;;;;;;;;5050527;28;20445;-75
2023/01/31 10:55:28;;;;;;;10.97;4.90;;;;;;;;;;5050432;28;20804;-76
2023/01/31 10:57:55;;;;;;;4.50;3.47;;;;;;;;;;5051926;28;20457;-75
2023/01/31 11:00:23;;;;;;;5.43;4.23;;;;;;;;;;5050778;28;20501;-74
2023/01/31 11:02:50;;;;;;;8.37;5.07;;;;;;;;;;5050669;28;20456;-75
2023/01/31 11:05:20;;;;;;;5.83;3.73;;;;;;;;;;5049907;28;20445;-75
2023/01/31 11:07:47;;;;;;;8.17;3.70;;;;;;;;;;5049895;28;20952;-74
2023/01/31 11:10:22;;;;;;;5.40;3.70;;;;;;;;;;5050119;28;20465;-74
2023/01/31 11:12:54;;;;;;;6.40;3.80;;;;;;;;;;5050360;28;20484;-75
2023/01/31 11:15:25;;;;;;;7.27;4.47;;;;;;;;;;5050080;28;20434;-75
2023/01/31 11:17:52;;;;;;;7.17;3.70;;;;;;;;;;5049827;28;20528;-75
2023/01/31 11:20:22;;;;;;;8.53;4.40;;;;;;;;;;5049795;28;20490;-74
2023/01/31 11:22:49;;;;;;;6.93;3.63;;;;;;;;;;5050261;28;20437;-75
2023/01/31 11:25:19;;;;;;;9.93;3.70;;;;;;;;;;5050169;28;20960;-75
2023/01/31 11:27:47;;;;;;;6.53;3.97;;;;;;;;;;5050453;28;20537;-74
2023/01/31 11:30:22;;;;;;;7.53;4.50;;;;;;;;;;5050622;28;20460;-74
2023/01/31 11:32:49;;;;;;;8.40;5.03;;;;;;;;;;5051209;28;20449;-75
2023/01/31 11:35:24;;;;;;;6.87;3.93;;;;;;;;;;5051969;28;20485;-74
2023/01/31 11:37:52;;;;;;;4.10;3.20;;;;;;;;;;5051957;28;20487;-75
2023/01/31 11:40:21;;;;;;;6.47;4.40;;;;;;;;;;5051049;28;20534;-75
2023/01/31 11:42:52;;;;;;;8.63;4.03;;;;;;;;;;5049994;28;20957;-75
2023/01/31 11:45:21;;;;;;;12.73;6.03;;;;;;;;;;5050947;28;20490;-74
2023/01/31 11:47:50;;;;;;;9.83;3.80;;;;;;;;;;5050047;28;20446;-75
2023/01/31 11:50:21;;;;;;;7.10;3.80;;;;;;;;;;5049893;28;20457;-76
2023/01/31 11:52:54;;;;;;;5.13;3.43;;;;;;;;;;5049756;28;20449;-74
2023/01/31 11:55:21;;;;;;;8.30;3.57;;;;;;;;;;5050069;28;20449;-74
2023/01/31 11:57:55;;;;;;;8.90;3.67;;;;;;;;;;5049791;28;20450;-75
2023/01/31 12:00:24;;;;;;;5.60;3.50;;;;;;;;;;5049486;28;20543;-74
2023/01/31 12:02:53;;;;;;;6.07;3.60;;;;;;;;;;5049696;28;20445;-74
2023/01/31 12:05:21;;;;;;;7.13;3.40;;;;;;;;;;5049607;28;20553;-74
2023/01/31 12:07:49;;;;;;;3.80;3.30;;;;;;;;;;5049116;28;20445;-75
2023/01/31 12:10:31;;;;;;;5.40;2.67;;;;;;;;;;5049255;28;20844;-74
2023/01/31 12:12:59;;;;;;;5.97;3.00;;;;;;;;;;5049439;28;20453;-75
2023/01/31 12:15:29;;;;;;;7.37;3.30;;;;;;;;;;5049258;28;20788;-75
2023/01/31 12:17:56;;;;;;;5.40;2.57;;;;;;;;;;5053079;28;20976;-74
2023/01/31 12:20:30;;;;;;;5.90;2.60;;;;;;;;;;5053335;28;20508;-74
2023/01/31 12:23:03;;;;;;;11.40;3.07;;;;;;;;;;5053035;28;20444;-74
2023/01/31 12:25:37;;;;;;;5.57;3.27;;;;;;;;;;5054058;28;20648;-74
2023/01/31 12:28:10;;;;;;;6.60;3.20;;;;;;;;;;5054656;28;20444;-75
2023/01/31 12:30:55;;;;;;;4.10;2.90;;;;;;;;;;5071397;28;20461;-75
2023/01/31 12:33:35;;;;;;;4.03;3.10;;;;;;;;;;5065369;28;20438;-73
2023/01/31 12:36:12;;;;;;;5.90;2.83;;;;;;;;;;5053422;28;20445;-74
2023/01/31 12:38:53;;;;;;;3.80;2.47;;;;;;;;;;5053088;28;20449;-75
2023/01/31 12:41:29;;;;;;;8.80;3.17;;;;;;;;;;5052821;28;20980;-75
2023/01/31 12:44:08;;;;;;;5.10;2.50;;;;;;;;;;5059199;28;20452;-74
2023/01/31 12:46:41;;;;;;;4.97;3.00;;;;;;;;;;5070590;28;20465;-74
2023/01/31 12:49:23;;;;;;;5.10;2.73;;;;;;;;;;5053106;28;20438;-76
2023/01/31 12:51:58;;;;;;;5.67;2.80;;;;;;;;;;5056218;28;20426;-75
2023/01/31 12:54:35;;;;;;;3.43;2.80;;;;;;;;;;5055319;28;20479;-74
2023/01/31 12:57:07;;;;;;;5.97;2.83;;;;;;;;;;5052597;28;20429;-75
2023/01/31 12:59:39;;;;;;;2.67;2.47;;;;;;;;;;5052510;28;20465;-75
2023/01/31 13:02:16;;;;;;;5.00;3.10;;;;;;;;;;5052438;28;20437;-75
2023/01/31 13:04:47;;;;;;;9.90;3.20;;;;;;;;;;5052387;28;20429;-75
2023/01/31 13:07:18;;;;;;;4.73;2.87;;;;;;;;;;5052676;28;20493;-74
2023/01/31 13:09:46;;;;;;;4.87;3.10;;;;;;;;;;5052815;28;20458;-74
2023/01/31 13:12:14;;;;;;;5.80;3.00;;;;;;;;;;5052199;28;20507;-75
2023/01/31 13:14:43;;;;;;;4.00;2.40;;;;;;;;;;5052072;28;20442;-75
2023/01/31 13:17:12;;;;;;;5.40;3.50;;;;;;;;;;5052217;28;20845;-74
2023/01/31 13:19:43;;;;;;;6.03;3.20;;;;;;;;;;5052420;28;20450;-74
2023/01/31 13:22:14;;;;;;;6.80;3.63;;;;;;;;;;5052079;28;20433;-74
2023/01/31 13:24:42;;;;;;;3.20;2.50;;;;;;;;;;5051688;28;20453;-74
2023/01/31 13:27:12;;;;;;;3.67;3.33;;;;;;;;;;5051492;28;20453;-76
2023/01/31 13:29:40;;;;;;;3.40;3.10;;;;;;;;;;5051877;28;20477;-75
2023/01/31 13:32:10;;;;;;;7.33;4.03;;;;;;;;;;5052030;28;20441;-76
2023/01/31 13:34:40;;;;;;;4.10;3.33;;;;;;;;;;5051730;28;20526;-74
2023/01/31 13:37:11;;;;;;;6.20;3.87;;;;;;;;;;5051747;28;20625;-74
2023/01/31 13:39:40;;;;;;;22.13;12.50;;;;;;;;;;5051676;28;20465;-75
2023/01/31 13:42:07;;;;;;;6.93;2.93;;;;;;;;;;5051740;28;20968;-74
2023/01/31 13:44:34;;;;;;;8.13;5.07;;;;;;;;;;5051780;28;20442;-76
2023/01/31 13:47:03;;;;;;;4.57;3.53;;;;;;;;;;5051843;28;20508;-75
2023/01/31 13:49:33;;;;;;;10.57;3.20;;;;;;;;;;5051796;28;20476;-75
2023/01/31 13:52:02;;;;;;;5.10;4.10;;;;;;;;;;5051316;28;20954;-74
2023/01/31 13:54:32;;;;;;;5.93;3.70;;;;;;;;;;5051361;28;20453;-75
2023/01/31 13:57:00;;;;;;;6.67;3.60;;;;;;;;;;5051568;28;20453;-75
2023/01/31 13:59:28;;;;;;;5.73;3.07;;;;;;;;;;5051285;28;20465;-75
2023/01/31 14:01:57;;;;;;;9.47;3.40;;;;;;;;;;5051127;28;20485;-75
2023/01/31 14:04:28;;;;;;;7.10;3.40;;;;;;;;;;5051036;28;20835;-75
2023/01/31 14:07:14;;;;;;;7.40;3.57;;;;;;;;;;5051412;28;20452;-74
2023/01/31 14:09:45;;;;;;;7.50;3.40;;;;;;;;;;5050882;28;20924;-75
2023/01/31 14:12:32;;;;;;;8.23;3.80;;;;;;;;;;5051284;28;20519;-75
2023/01/31 14:14:59;;;;;;;5.53;3.63;;;;;;;;;;5051154;28;20456;-74
2023/01/31 14:17:45;;;;;;;4.20;3.37;;;;;;;;;;5051191;28;20504;-74
2023/01/31 14:20:25;;;;;;;3.20;2.83;;;;;;;;;;5051287;28;20461;-75
2023/01/31 14:23:07;;;;;;;4.20;3.10;;;;;;;;;;5051331;28;20446;-75
2023/01/31 14:25:42;;;;;;;4.60;3.70;;;;;;;;;;5050836;28;20494;-74
2023/01/31 14:28:11;;;;;;;5.57;4.43;;;;;;;;;;5051112;28;20437;-74
2023/01/31 14:30:40;;;;;;;5.10;3.70;;;;;;;;;;5051099;28;20461;-75
2023/01/31 14:33:15;;;;;;;6.80;3.97;;;;;;;;;;5051321;28;20546;-75
2023/01/31 14:36:00;;;;;;;4.10;3.70;;;;;;;;;;5050836;28;20432;-76
2023/01/31 14:38:35;;;;;;;4.40;4.00;;;;;;;;;;5019829;28;20438;-75
2023/01/31 14:41:08;;;;;;;4.60;4.00;;;;;;;;;;5050774;28;20481;-74
2023/01/31 14:43:41;;;;;;;5.80;4.10;;;;;;;;;;5050618;28;20492;-74
2023/01/31 14:46:17;;;;;;;7.10;4.67;;;;;;;;;;5050494;28;20446;-75
2023/01/31 14:48:57;;;;;;;3.87;3.40;;;;;;;;;;5050892;28;20491;-75
2023/01/31 14:51:27;;;;;;;7.10;4.80;;;;;;;;;;5050598;28;20871;-74
2023/01/31 14:54:07;;;;;;;6.43;4.93;;;;;;;;;;5050855;28;20460;-75
2023/01/31 14:56:42;;;;;;;4.37;4.00;;;;;;;;;;5050364;28;20445;-75
2023/01/31 14:59:24;;;;;;;5.83;4.03;;;;;;;;;;5050527;28;20432;-75